KGVE/GVE METAR and TAF weather

Enter ICAO airport designator
Station Type Date Time Source
KGVE METAR 2019/06/18 04:30 UTC NOAA

KGVE 180430Z AUTO 00000KT 10SM CLR 20/20 A3000 RMK AO1 T01970197


Station Type Date Time Source
KGVE Decoded METAR 2019/06/18 04:30 UTC NOAA

Station name not available
Jun 18, 2019 - 12:30 AM EDT / 2019.06.18 0430 UTC
Wind: Calm:0
Visibility: 10 mile(s):0
Sky conditions: clear
Temperature: 67.5 F (19.7 C)
Dew Point: 67.5 F (19.7 C)
Relative Humidity: 100%
Pressure (altimeter): 30 in. Hg (1015 hPa)
ob: KGVE 180430Z AUTO 00000KT 10SM CLR 20/20 A3000 RMK AO1 T01970197
cycle: 4

Station Type Date Time Source
KGVE TAF UTC NOAA

Error!

Example: see airport list